Time;durP1;ratioP1;P1;durP2;ratioP2;P2;SDS_P1;SDS_P2;PMS_P1;PMS_P2;Temp;Humidity;BMP_temperature;BMP_pressure;BME280_temperature;BME280_humidity;BME280_pressure;Samples;Min_cycle;Max_cycle;Signal;HPM_P1;HPM_P2
2022/01/27 00:01:21;;;;;;;10.55;7.40;;;;;;;;;;5023210;28;20133;-74
2022/01/27 00:04:03;;;;;;;10.77;7.53;;;;;;;;;;5036769;28;20045;-74
2022/01/27 00:06:30;;;;;;;10.50;7.47;;;;;;;;;;5037311;28;20052;-74
2022/01/27 00:09:01;;;;;;;9.35;6.95;;;;;;;;;;5034855;28;20266;-74
2022/01/27 00:11:27;;;;;;;10.57;6.93;;;;;;;;;;5045734;28;20040;-74
2022/01/27 00:13:59;;;;;;;7.95;6.32;;;;;;;;;;5020975;28;20413;-74
2022/01/27 00:16:28;;;;;;;;;;;;;;;;;;5039893;28;20502;-74
2022/01/27 00:18:54;;;;;;;10.15;7.10;;;;;;;;;;5038146;28;19999;-74
2022/01/27 00:21:21;;;;;;;9.57;7.07;;;;;;;;;;5013831;28;20033;-74
2022/01/27 00:23:47;;;;;;;8.23;6.07;;;;;;;;;;5007670;28;20427;-74
2022/01/27 00:26:13;;;;;;;9.18;6.72;;;;;;;;;;5018448;28;20032;-74
2022/01/27 00:28:40;;;;;;;9.63;6.72;;;;;;;;;;5017819;28;20040;-74
2022/01/27 00:31:05;;;;;;;7.93;6.15;;;;;;;;;;5026771;28;20044;-73
2022/01/27 00:33:31;;;;;;;8.82;6.07;;;;;;;;;;5031673;28;20068;-74
2022/01/27 00:35:56;;;;;;;8.63;6.22;;;;;;;;;;5033889;28;20028;-74
2022/01/27 00:38:22;;;;;;;8.52;6.45;;;;;;;;;;5017536;28;20093;-74
2022/01/27 00:40:47;;;;;;;9.10;6.40;;;;;;;;;;5033502;28;20032;-74
2022/01/27 00:43:13;;;;;;;7.78;5.80;;;;;;;;;;5017675;28;20083;-74
2022/01/27 00:45:38;;;;;;;8.27;5.35;;;;;;;;;;5001605;28;20572;-74
2022/01/27 00:48:05;;;;;;;8.02;5.85;;;;;;;;;;5033871;28;20044;-74
2022/01/27 00:50:35;;;;;;;6.97;5.68;;;;;;;;;;5033815;28;20037;-74
2022/01/27 00:53:03;;;;;;;8.05;5.93;;;;;;;;;;5035122;28;20048;-74
2022/01/27 00:55:33;;;;;;;7.82;6.32;;;;;;;;;;5019708;28;20032;-74
2022/01/27 00:58:23;;;;;;;9.57;5.85;;;;;;;;;;5018361;28;20163;-74
2022/01/27 01:00:57;;;;;;;8.15;5.45;;;;;;;;;;5007341;28;20043;-74
2022/01/27 01:03:34;;;;;;;7.55;5.40;;;;;;;;;;5019479;28;20044;-74
2022/01/27 01:06:39;;;;;;;6.95;5.45;;;;;;;;;;5020713;28;20055;-74
2022/01/27 01:12:36;;;;;;;8.50;6.10;;;;;;;;;;4994211;28;20044;-74
2022/01/27 01:14:41;;;;;;;6.50;5.28;;;;;;;;;;5035884;28;20485;-74
2022/01/27 01:32:56;;;;;;;6.82;5.28;;;;;;;;;;5034523;28;20043;-74
2022/01/27 01:36:14;;;;;;;6.78;5.40;;;;;;;;;;5046611;28;20036;-74
2022/01/27 01:38:08;;;;;;;9.00;5.78;;;;;;;;;;5025284;28;20118;-74
2022/01/27 01:40:34;;;;;;;6.80;4.90;;;;;;;;;;5036449;28;20048;-74
2022/01/27 01:42:59;;;;;;;7.63;5.63;;;;;;;;;;5020055;28;20033;-74
2022/01/27 01:45:26;;;;;;;6.95;4.65;;;;;;;;;;5053179;28;20094;-74
2022/01/27 01:47:52;;;;;;;6.47;5.10;;;;;;;;;;5036801;28;20037;-74
2022/01/27 01:50:17;;;;;;;8.23;5.55;;;;;;;;;;5036383;28;20116;-74
2022/01/27 01:52:43;;;;;;;6.57;5.05;;;;;;;;;;5031402;28;20036;-74
2022/01/27 01:55:09;;;;;;;6.40;5.32;;;;;;;;;;5036427;28;20517;-74
2022/01/27 01:57:34;;;;;;;6.65;5.03;;;;;;;;;;5050111;28;20107;-74
2022/01/27 02:00:00;;;;;;;7.53;5.28;;;;;;;;;;5016727;28;20033;-74
2022/01/27 02:02:25;;;;;;;7.13;5.07;;;;;;;;;;5034774;28;20029;-74
2022/01/27 02:04:51;;;;;;;6.43;4.93;;;;;;;;;;5003765;28;20045;-74
2022/01/27 02:07:31;;;;;;;6.78;5.10;;;;;;;;;;5020295;28;20037;-74
2022/01/27 02:10:28;;;;;;;6.78;5.07;;;;;;;;;;5006302;28;20044;-74
2022/01/27 02:18:27;;;;;;;7.00;5.55;;;;;;;;;;4986143;28;20049;-74
2022/01/27 02:20:52;;;;;;;5.97;4.78;;;;;;;;;;5025463;28;20516;-74
2022/01/27 02:23:18;;;;;;;8.18;5.55;;;;;;;;;;5039336;28;20032;-74
2022/01/27 02:25:43;;;;;;;6.35;5.00;;;;;;;;;;5023060;28;20053;-74
2022/01/27 02:28:09;;;;;;;8.50;5.72;;;;;;;;;;5056826;28;20047;-74
2022/01/27 02:30:34;;;;;;;6.22;4.28;;;;;;;;;;5039579;28;20051;-74
2022/01/27 02:33:00;;;;;;;6.63;4.82;;;;;;;;;;5039726;28;20043;-74
2022/01/27 02:35:29;;;;;;;7.65;5.13;;;;;;;;;;5019781;28;20040;-74
2022/01/27 02:37:54;;;;;;;6.45;5.18;;;;;;;;;;5019365;28;20123;-74
2022/01/27 02:40:29;;;;;;;6.28;4.93;;;;;;;;;;5019647;28;20100;-74
2022/01/27 02:42:54;;;;;;;6.85;5.05;;;;;;;;;;5004187;28;20043;-74
2022/01/27 02:45:27;;;;;;;7.00;4.70;;;;;;;;;;5019833;28;20104;-74
2022/01/27 02:47:53;;;;;;;6.65;4.95;;;;;;;;;;5035805;28;20128;-74
2022/01/27 02:50:18;;;;;;;7.88;5.22;;;;;;;;;;5053693;28;20039;-74
2022/01/27 02:52:44;;;;;;;7.43;5.63;;;;;;;;;;5050890;28;20048;-74
2022/01/27 02:55:10;;;;;;;6.53;4.63;;;;;;;;;;5039064;28;20119;-74
2022/01/27 02:57:35;;;;;;;6.72;4.65;;;;;;;;;;5051098;28;20033;-74
2022/01/27 03:00:01;;;;;;;6.75;4.47;;;;;;;;;;5036539;28;20041;-74
2022/01/27 03:02:27;;;;;;;6.18;4.63;;;;;;;;;;5019490;28;20048;-74
2022/01/27 03:04:52;;;;;;;6.78;4.82;;;;;;;;;;5035303;28;20116;-74
2022/01/27 03:07:18;;;;;;;5.32;4.18;;;;;;;;;;5018806;28;20048;-74
2022/01/27 03:09:43;;;;;;;7.32;4.50;;;;;;;;;;5053166;28;20029;-74
2022/01/27 03:12:12;;;;;;;6.63;4.80;;;;;;;;;;5031993;28;20460;-73
2022/01/27 03:14:38;;;;;;;6.03;4.50;;;;;;;;;;5022273;28;20123;-74
2022/01/27 03:17:04;;;;;;;5.90;4.90;;;;;;;;;;5055398;28;20123;-73
2022/01/27 03:19:30;;;;;;;6.43;4.53;;;;;;;;;;5055070;28;20445;-74
2022/01/27 03:21:56;;;;;;;6.05;4.30;;;;;;;;;;5038103;28;20107;-74
2022/01/27 03:24:22;;;;;;;6.40;5.00;;;;;;;;;;5038589;28;20037;-74
2022/01/27 03:26:48;;;;;;;5.93;4.32;;;;;;;;;;5026137;28;20037;-74
2022/01/27 03:29:16;;;;;;;5.88;4.03;;;;;;;;;;5035300;28;20054;-74
2022/01/27 03:32:31;;;;;;;5.22;3.95;;;;;;;;;;5002315;28;20078;-74
2022/01/27 03:34:56;;;;;;;7.18;4.63;;;;;;;;;;5052535;28;20040;-74
2022/01/27 03:37:22;;;;;;;6.40;5.10;;;;;;;;;;5002486;28;20116;-74
2022/01/27 03:39:48;;;;;;;5.38;4.30;;;;;;;;;;5018709;28;20072;-74
2022/01/27 03:42:13;;;;;;;7.90;4.97;;;;;;;;;;5018327;28;20041;-74
2022/01/27 03:44:39;;;;;;;6.38;4.45;;;;;;;;;;5053135;28;20029;-74
2022/01/27 03:47:04;;;;;;;7.35;4.70;;;;;;;;;;5050444;28;20047;-74
2022/01/27 03:49:30;;;;;;;6.55;4.50;;;;;;;;;;5054316;28;20044;-74
2022/01/27 03:51:59;;;;;;;6.30;4.22;;;;;;;;;;5032530;28;20090;-74
2022/01/27 03:54:25;;;;;;;5.18;4.13;;;;;;;;;;5039133;28;20044;-73
2022/01/27 03:56:51;;;;;;;5.78;4.53;;;;;;;;;;5021649;28;20040;-74
2022/01/27 03:59:16;;;;;;;6.53;5.25;;;;;;;;;;5038265;28;20089;-74
2022/01/27 04:01:42;;;;;;;6.85;4.88;;;;;;;;;;5039707;28;20045;-74
2022/01/27 04:04:07;;;;;;;6.28;4.38;;;;;;;;;;5034052;28;20032;-74
2022/01/27 04:06:39;;;;;;;5.63;4.40;;;;;;;;;;5018096;28;20044;-74
2022/01/27 04:09:06;;;;;;;8.43;4.65;;;;;;;;;;5035418;28;20052;-74
2022/01/27 04:11:31;;;;;;;5.82;4.55;;;;;;;;;;5044168;28;20032;-74
2022/01/27 04:13:57;;;;;;;6.35;3.67;;;;;;;;;;5037968;28;20094;-74
2022/01/27 04:16:22;;;;;;;6.00;4.65;;;;;;;;;;5054543;28;20090;-74
2022/01/27 04:18:48;;;;;;;6.07;4.05;;;;;;;;;;5037743;28;20051;-74
2022/01/27 04:21:14;;;;;;;5.63;4.38;;;;;;;;;;5037480;28;20040;-74
2022/01/27 04:23:40;;;;;;;6.43;4.38;;;;;;;;;;5037251;28;20032;-73
2022/01/27 04:26:06;;;;;;;6.68;4.47;;;;;;;;;;5036868;28;20098;-74
2022/01/27 04:28:35;;;;;;;6.15;4.55;;;;;;;;;;5054607;28;20051;-73
2022/01/27 04:31:03;;;;;;;5.50;4.53;;;;;;;;;;5037994;28;20037;-74
2022/01/27 04:33:31;;;;;;;5.43;3.85;;;;;;;;;;5004969;28;20461;-74
2022/01/27 04:36:00;;;;;;;5.47;4.00;;;;;;;;;;5037365;28;20048;-74
2022/01/27 04:39:13;;;;;;;5.82;4.35;;;;;;;;;;5054636;28;20107;-74
2022/01/27 04:41:33;;;;;;;7.10;4.80;;;;;;;;;;5049417;28;20052;-74
2022/01/27 04:44:13;;;;;;;6.60;4.30;;;;;;;;;;5039896;28;20036;-74
2022/01/27 04:46:55;;;;;;;6.22;4.53;;;;;;;;;;5024879;28;20414;-74
2022/01/27 04:49:21;;;;;;;6.38;4.38;;;;;;;;;;5055183;28;20036;-74
2022/01/27 04:51:46;;;;;;;6.95;4.97;;;;;;;;;;5015106;28;20502;-74
2022/01/27 04:54:21;;;;;;;6.32;4.22;;;;;;;;;;5053396;28;20510;-74
2022/01/27 04:56:47;;;;;;;5.38;3.80;;;;;;;;;;5023322;28;20039;-74
2022/01/27 04:59:26;;;;;;;6.00;4.00;;;;;;;;;;5033081;28;20407;-74
2022/01/27 05:02:02;;;;;;;6.07;4.32;;;;;;;;;;5018664;28;20068;-74
2022/01/27 05:04:34;;;;;;;5.93;3.88;;;;;;;;;;5020218;28;20106;-73
2022/01/27 05:07:00;;;;;;;5.68;4.25;;;;;;;;;;5019010;28;20041;-74
2022/01/27 05:09:25;;;;;;;6.53;5.05;;;;;;;;;;5033600;28;20029;-74
2022/01/27 05:11:55;;;;;;;8.15;4.18;;;;;;;;;;5017072;28;20119;-74
2022/01/27 05:14:25;;;;;;;6.38;4.32;;;;;;;;;;5024646;28;20055;-74
2022/01/27 05:16:51;;;;;;;5.90;4.07;;;;;;;;;;5013817;28;20498;-73
2022/01/27 05:19:17;;;;;;;6.38;4.47;;;;;;;;;;5016903;28;20036;-74
2022/01/27 05:21:43;;;;;;;6.75;4.55;;;;;;;;;;5016768;28;20036;-74
2022/01/27 05:24:08;;;;;;;6.15;4.88;;;;;;;;;;5032754;28;20052;-74
2022/01/27 05:26:34;;;;;;;5.30;4.40;;;;;;;;;;5031755;28;20410;-74
2022/01/27 05:29:00;;;;;;;6.45;4.43;;;;;;;;;;5016807;28;20475;-73
2022/01/27 05:31:26;;;;;;;5.93;4.15;;;;;;;;;;5032996;28;20029;-74
2022/01/27 05:33:51;;;;;;;6.80;4.50;;;;;;;;;;5017806;28;20044;-74
2022/01/27 05:36:17;;;;;;;6.45;4.95;;;;;;;;;;5053440;28;20033;-74
2022/01/27 05:38:42;;;;;;;6.28;4.07;;;;;;;;;;5068186;28;20041;-74
2022/01/27 05:41:07;;;;;;;5.18;3.80;;;;;;;;;;5037331;28;20083;-74
2022/01/27 05:43:33;;;;;;;5.97;3.97;;;;;;;;;;5004095;28;20067;-74
2022/01/27 05:45:59;;;;;;;6.47;4.68;;;;;;;;;;5020530;28;20043;-73
2022/01/27 05:48:24;;;;;;;6.15;4.47;;;;;;;;;;5020286;28;20037;-74
2022/01/27 05:50:50;;;;;;;5.80;4.38;;;;;;;;;;4998903;28;20094;-74
2022/01/27 05:53:15;;;;;;;5.95;3.65;;;;;;;;;;5039714;28;20119;-74
2022/01/27 05:55:41;;;;;;;5.68;4.10;;;;;;;;;;5056719;28;20045;-74
2022/01/27 05:58:06;;;;;;;6.68;4.95;;;;;;;;;;5056896;28;20044;-74
2022/01/27 06:00:32;;;;;;;6.20;4.35;;;;;;;;;;5039729;28;20036;-74
2022/01/27 06:02:57;;;;;;;7.35;5.03;;;;;;;;;;5007210;28;20028;-73
2022/01/27 06:05:22;;;;;;;7.13;4.40;;;;;;;;;;5025402;28;20459;-73
2022/01/27 06:07:48;;;;;;;8.05;4.78;;;;;;;;;;5019251;28;20071;-75
2022/01/27 06:10:13;;;;;;;11.50;4.90;;;;;;;;;;5016210;28;20036;-76
2022/01/27 06:12:57;;;;;;;5.85;4.20;;;;;;;;;;5035883;28;20036;-76
2022/01/27 06:15:24;;;;;;;6.57;4.57;;;;;;;;;;5038899;28;20119;-76
2022/01/27 06:17:49;;;;;;;6.53;4.78;;;;;;;;;;5018684;28;20083;-73
2022/01/27 06:20:15;;;;;;;6.47;4.18;;;;;;;;;;5019787;28;20032;-74
2022/01/27 06:22:41;;;;;;;8.93;5.07;;;;;;;;;;5052382;28;20074;-73
2022/01/27 06:25:07;;;;;;;6.35;4.03;;;;;;;;;;5040150;28;20452;-74
2022/01/27 06:27:33;;;;;;;5.63;4.15;;;;;;;;;;5039595;28;20035;-72
2022/01/27 06:29:58;;;;;;;7.45;4.70;;;;;;;;;;5039674;28;20036;-74
2022/01/27 06:32:24;;;;;;;7.53;4.70;;;;;;;;;;5022752;28;20081;-73
2022/01/27 06:34:49;;;;;;;12.23;5.30;;;;;;;;;;5029941;28;20060;-75
2022/01/27 06:37:15;;;;;;;16.40;8.40;;;;;;;;;;5018404;28;20120;-74
2022/01/27 06:39:40;;;;;;;242.15;192.18;;;;;;;;;;5016849;28;20106;-74
2022/01/27 06:42:07;;;;;;;320.30;267.25;;;;;;;;;;5017898;28;20044;-74
2022/01/27 06:44:35;;;;;;;291.75;241.57;;;;;;;;;;5019310;28;20029;-75
2022/01/27 06:47:01;;;;;;;227.25;183.02;;;;;;;;;;5036257;28;20040;-75
2022/01/27 06:49:26;;;;;;;197.52;159.35;;;;;;;;;;5019234;28;20032;-76
2022/01/27 06:51:52;;;;;;;165.35;132.63;;;;;;;;;;5053193;28;20063;-75
2022/01/27 06:54:18;;;;;;;156.77;121.32;;;;;;;;;;5037730;28;20040;-74
2022/01/27 06:56:45;;;;;;;154.88;122.63;;;;;;;;;;5039031;28;20048;-74
2022/01/27 06:59:10;;;;;;;143.60;114.70;;;;;;;;;;5022322;28;20044;-74
2022/01/27 07:01:36;;;;;;;133.52;106.22;;;;;;;;;;5002506;28;20441;-74
2022/01/27 07:04:01;;;;;;;123.95;101.72;;;;;;;;;;5035760;28;20041;-73
2022/01/27 07:06:27;;;;;;;129.85;101.13;;;;;;;;;;5036721;28;20410;-73
2022/01/27 07:08:53;;;;;;;127.40;96.45;;;;;;;;;;5053744;28;20040;-74
2022/01/27 07:11:18;;;;;;;120.28;95.38;;;;;;;;;;5018826;28;20130;-73
2022/01/27 07:13:44;;;;;;;113.35;88.72;;;;;;;;;;5053030;28;20047;-74
2022/01/27 07:16:10;;;;;;;112.32;86.25;;;;;;;;;;5021655;28;20032;-74
2022/01/27 07:18:36;;;;;;;109.00;83.85;;;;;;;;;;5016172;28;20434;-74
2022/01/27 07:21:05;;;;;;;97.97;77.43;;;;;;;;;;5025065;28;20513;-74
2022/01/27 07:23:30;;;;;;;92.15;77.50;;;;;;;;;;5072883;28;20521;-74
2022/01/27 07:25:56;;;;;;;99.47;79.20;;;;;;;;;;5054739;28;20052;-74
2022/01/27 07:28:21;;;;;;;95.43;73.22;;;;;;;;;;5021966;28;20040;-74
2022/01/27 07:30:46;;;;;;;88.60;71.95;;;;;;;;;;5037882;28;20037;-74
2022/01/27 07:33:12;;;;;;;85.18;68.40;;;;;;;;;;5038160;28;20041;-74
2022/01/27 07:35:37;;;;;;;81.20;63.03;;;;;;;;;;5039118;28;20041;-74
2022/01/27 07:38:04;;;;;;;83.95;66.25;;;;;;;;;;5018714;28;20048;-74
2022/01/27 07:40:29;;;;;;;81.30;63.22;;;;;;;;;;5018876;28;20059;-74
2022/01/27 07:42:55;;;;;;;70.22;58.15;;;;;;;;;;5034472;28;20495;-74
2022/01/27 07:45:20;;;;;;;72.80;60.25;;;;;;;;;;5034824;28;20045;-74
2022/01/27 07:47:46;;;;;;;71.15;59.22;;;;;;;;;;5018108;28;20037;-74
2022/01/27 07:50:11;;;;;;;68.35;55.20;;;;;;;;;;5018564;28;20037;-74
2022/01/27 07:52:37;;;;;;;68.47;54.65;;;;;;;;;;5034457;28;20044;-74
2022/01/27 07:55:02;;;;;;;68.05;52.65;;;;;;;;;;5034705;28;20040;-74
2022/01/27 07:57:28;;;;;;;60.97;51.53;;;;;;;;;;5017627;28;20036;-74
2022/01/27 07:59:53;;;;;;;57.70;48.75;;;;;;;;;;5017360;28;20048;-74
2022/01/27 08:02:18;;;;;;;61.53;50.30;;;;;;;;;;5034564;28;20037;-74
2022/01/27 08:04:46;;;;;;;63.25;49.25;;;;;;;;;;5034286;28;20094;-74
2022/01/27 08:07:11;;;;;;;60.83;48.00;;;;;;;;;;5034883;28;20037;-74
2022/01/27 08:09:37;;;;;;;54.90;43.55;;;;;;;;;;5034692;28;20071;-74
2022/01/27 08:12:03;;;;;;;59.08;45.75;;;;;;;;;;5017403;28;20021;-74
2022/01/27 08:14:28;;;;;;;57.17;42.38;;;;;;;;;;5034597;28;20048;-74
2022/01/27 08:16:53;;;;;;;58.17;46.67;;;;;;;;;;5034370;28;20418;-74
2022/01/27 08:19:19;;;;;;;58.13;43.70;;;;;;;;;;5034080;28;20066;-74
2022/01/27 08:21:44;;;;;;;52.55;43.42;;;;;;;;;;5022533;28;20068;-74
2022/01/27 08:24:11;;;;;;;53.50;43.15;;;;;;;;;;5001207;28;20053;-75
2022/01/27 08:26:40;;;;;;;51.85;41.72;;;;;;;;;;5017869;28;20491;-76
2022/01/27 08:29:17;;;;;;;54.85;41.53;;;;;;;;;;5018800;28;20037;-76
2022/01/27 08:32:01;;;;;;;49.70;39.05;;;;;;;;;;5035407;28;20403;-76
2022/01/27 08:34:31;;;;;;;46.47;38.15;;;;;;;;;;5022975;28;20107;-76
2022/01/27 08:36:57;;;;;;;47.47;36.85;;;;;;;;;;5001037;28;20057;-76
2022/01/27 08:39:23;;;;;;;47.47;35.97;;;;;;;;;;5032233;28;20035;-76
2022/01/27 08:41:49;;;;;;;43.65;34.83;;;;;;;;;;5031913;28;20119;-75
2022/01/27 08:44:14;;;;;;;47.08;36.28;;;;;;;;;;5032558;28;20045;-76
2022/01/27 08:46:40;;;;;;;45.50;35.58;;;;;;;;;;5050517;28;20558;-76
2022/01/27 08:49:06;;;;;;;38.30;31.63;;;;;;;;;;5033800;28;20090;-76
2022/01/27 08:51:32;;;;;;;39.97;33.10;;;;;;;;;;5050283;28;20084;-76
2022/01/27 08:53:57;;;;;;;43.47;32.97;;;;;;;;;;5017059;28;20660;-76
2022/01/27 08:56:22;;;;;;;41.63;31.33;;;;;;;;;;5017407;28;20044;-75
2022/01/27 08:58:48;;;;;;;37.75;32.20;;;;;;;;;;5017235;28;20048;-75
2022/01/27 09:01:13;;;;;;;37.92;29.88;;;;;;;;;;5017248;28;20041;-76
2022/01/27 09:03:39;;;;;;;36.83;29.73;;;;;;;;;;5033429;28;20052;-76
2022/01/27 09:06:04;;;;;;;41.90;31.45;;;;;;;;;;5017148;28;20492;-76
2022/01/27 09:08:30;;;;;;;36.25;28.90;;;;;;;;;;5017298;28;20128;-76
2022/01/27 09:10:55;;;;;;;38.53;28.60;;;;;;;;;;5033423;28;20151;-76
2022/01/27 09:13:20;;;;;;;33.03;27.02;;;;;;;;;;5020765;28;20502;-76
2022/01/27 09:15:49;;;;;;;32.22;25.60;;;;;;;;;;5021050;28;20407;-76
2022/01/27 09:18:14;;;;;;;35.83;27.95;;;;;;;;;;5021285;28;20495;-76
2022/01/27 09:20:40;;;;;;;34.17;25.42;;;;;;;;;;5042386;28;20077;-75
2022/01/27 09:23:12;;;;;;;31.13;25.35;;;;;;;;;;5040429;28;20036;-76
2022/01/27 09:25:47;;;;;;;32.47;23.38;;;;;;;;;;5058572;28;20441;-76
2022/01/27 09:28:13;;;;;;;30.52;24.17;;;;;;;;;;5058525;28;20039;-76
2022/01/27 09:30:39;;;;;;;29.55;23.40;;;;;;;;;;5040374;28;20049;-76
2022/01/27 09:33:04;;;;;;;27.65;22.80;;;;;;;;;;5057460;28;20041;-76
2022/01/27 09:35:31;;;;;;;29.30;22.40;;;;;;;;;;5042270;28;20454;-76
2022/01/27 09:37:57;;;;;;;27.40;22.65;;;;;;;;;;5037497;28;20048;-76
2022/01/27 09:40:22;;;;;;;26.55;21.40;;;;;;;;;;5037371;28;20033;-76
2022/01/27 09:42:51;;;;;;;26.00;20.52;;;;;;;;;;5020744;28;20029;-76
2022/01/27 09:45:17;;;;;;;27.27;21.88;;;;;;;;;;5005535;28;20118;-76
2022/01/27 09:47:43;;;;;;;27.40;21.58;;;;;;;;;;5037062;28;20045;-76
2022/01/27 09:50:46;;;;;;;24.80;20.30;;;;;;;;;;5020760;28;20037;-76
2022/01/27 09:52:55;;;;;;;27.25;20.92;;;;;;;;;;5039258;28;20048;-76
2022/01/27 09:55:21;;;;;;;25.27;20.98;;;;;;;;;;5020770;28;20068;-76
2022/01/27 09:57:46;;;;;;;23.88;19.45;;;;;;;;;;5020304;28;20069;-75
2022/01/27 10:00:13;;;;;;;26.70;21.88;;;;;;;;;;5003723;28;20037;-76
2022/01/27 10:02:39;;;;;;;22.42;19.05;;;;;;;;;;5036624;28;20041;-76
2022/01/27 10:05:05;;;;;;;22.75;18.52;;;;;;;;;;5004252;28;20037;-76
2022/01/27 10:07:40;;;;;;;23.33;18.65;;;;;;;;;;5020027;28;20452;-76
2022/01/27 10:10:07;;;;;;;22.20;17.17;;;;;;;;;;5020295;28;20090;-76
2022/01/27 10:12:37;;;;;;;23.17;19.40;;;;;;;;;;5003849;28;20029;-76
2022/01/27 10:15:10;;;;;;;21.42;17.15;;;;;;;;;;5020962;28;20083;-76
2022/01/27 10:17:38;;;;;;;21.42;16.77;;;;;;;;;;5036921;28;20036;-76
2022/01/27 10:20:16;;;;;;;21.30;16.50;;;;;;;;;;5020734;28;20500;-76
2022/01/27 10:22:42;;;;;;;21.30;17.15;;;;;;;;;;5051625;28;20120;-76
2022/01/27 10:25:10;;;;;;;19.83;15.45;;;;;;;;;;5039717;28;20043;-76
2022/01/27 10:32:55;;;;;;;20.88;15.90;;;;;;;;;;5059141;28;20067;-77
2022/01/27 10:35:25;;;;;;;18.23;15.30;;;;;;;;;;5019342;28;20480;-77
2022/01/27 10:37:52;;;;;;;18.45;14.73;;;;;;;;;;5020008;28;20040;-78
2022/01/27 10:40:23;;;;;;;17.25;14.50;;;;;;;;;;5020048;28;20075;-78
2022/01/27 10:42:58;;;;;;;17.08;14.35;;;;;;;;;;5036205;28;20095;-78
2022/01/27 10:45:24;;;;;;;16.65;14.27;;;;;;;;;;5036061;28;20032;-78
2022/01/27 10:47:49;;;;;;;17.33;13.40;;;;;;;;;;5019321;28;20044;-78
2022/01/27 10:50:16;;;;;;;18.33;14.20;;;;;;;;;;5019024;28;20123;-78
2022/01/27 10:52:50;;;;;;;19.65;13.60;;;;;;;;;;5003007;28;20037;-79
2022/01/27 10:55:18;;;;;;;17.55;13.07;;;;;;;;;;5004494;28;20052;-78
2022/01/27 10:57:49;;;;;;;16.98;13.45;;;;;;;;;;5039266;28;20116;-78
2022/01/27 11:00:16;;;;;;;16.40;14.07;;;;;;;;;;5040487;28;20663;-78
2022/01/27 11:03:01;;;;;;;17.45;13.15;;;;;;;;;;5002302;28;20474;-78
2022/01/27 11:05:34;;;;;;;17.00;12.18;;;;;;;;;;5027070;28;20039;-78
2022/01/27 11:08:00;;;;;;;16.17;11.90;;;;;;;;;;5022937;28;20036;-78
2022/01/27 11:10:26;;;;;;;16.35;12.48;;;;;;;;;;5019779;28;20384;-78
2022/01/27 11:12:51;;;;;;;15.43;12.25;;;;;;;;;;4986436;28;20578;-78
2022/01/27 11:15:18;;;;;;;14.57;11.60;;;;;;;;;;5018944;28;20049;-78
2022/01/27 11:17:45;;;;;;;16.95;11.75;;;;;;;;;;5021999;28;20094;-78
2022/01/27 11:20:30;;;;;;;13.45;10.80;;;;;;;;;;5017874;28;20041;-77
2022/01/27 11:23:11;;;;;;;15.43;11.10;;;;;;;;;;5023582;28;20463;-77
2022/01/27 11:28:04;;;;;;;15.40;10.57;;;;;;;;;;5035183;28;20445;-78
2022/01/27 11:30:32;;;;;;;13.38;9.95;;;;;;;;;;5040034;28;20041;-78
2022/01/27 11:33:09;;;;;;;14.25;10.35;;;;;;;;;;5034998;28;20539;-78
2022/01/27 11:35:35;;;;;;;12.20;9.63;;;;;;;;;;5029072;28;20538;-77
2022/01/27 11:38:03;;;;;;;12.38;9.38;;;;;;;;;;5018634;28;20029;-78
2022/01/27 11:40:43;;;;;;;13.45;10.13;;;;;;;;;;5018553;28;20094;-78
2022/01/27 11:43:13;;;;;;;13.95;10.05;;;;;;;;;;5019407;28;20040;-77
2022/01/27 11:45:42;;;;;;;14.38;9.55;;;;;;;;;;5018708;28;20110;-77
2022/01/27 11:48:13;;;;;;;11.35;8.98;;;;;;;;;;5034365;28;20043;-78
2022/01/27 11:50:55;;;;;;;14.70;9.15;;;;;;;;;;5003709;28;20031;-77
2022/01/27 11:53:40;;;;;;;9.80;8.35;;;;;;;;;;5022511;28;20040;-78
2022/01/27 11:56:26;;;;;;;12.35;9.20;;;;;;;;;;5035718;28;20502;-78
2022/01/27 11:58:56;;;;;;;13.68;8.95;;;;;;;;;;5037246;28;20040;-77
2022/01/27 12:01:25;;;;;;;12.95;8.80;;;;;;;;;;5034071;28;20121;-77
2022/01/27 12:04:04;;;;;;;17.38;10.90;;;;;;;;;;5017157;28;20426;-77
2022/01/27 12:06:39;;;;;;;17.30;9.52;;;;;;;;;;5052311;28;20037;-76
2022/01/27 12:09:19;;;;;;;16.00;10.75;;;;;;;;;;5020088;28;20041;-77
2022/01/27 12:11:50;;;;;;;15.07;8.95;;;;;;;;;;5050679;28;20090;-76
2022/01/27 12:14:18;;;;;;;14.18;9.00;;;;;;;;;;5035560;28;20036;-76
2022/01/27 12:19:15;;;;;;;14.02;9.20;;;;;;;;;;5021339;28;20045;-76
2022/01/27 12:21:51;;;;;;;11.63;8.48;;;;;;;;;;5028906;28;20040;-76
2022/01/27 12:24:21;;;;;;;13.20;8.43;;;;;;;;;;5054366;28;20119;-76
2022/01/27 12:27:02;;;;;;;14.40;8.35;;;;;;;;;;5038742;28;20028;-77
2022/01/27 12:29:41;;;;;;;16.05;7.93;;;;;;;;;;5071940;28;20119;-77
2022/01/27 12:32:15;;;;;;;10.27;7.22;;;;;;;;;;5038439;28;20548;-77
2022/01/27 12:34:44;;;;;;;13.18;7.75;;;;;;;;;;5045328;28;20075;-77
2022/01/27 12:37:10;;;;;;;12.63;7.55;;;;;;;;;;5002004;28;20025;-77
2022/01/27 12:39:43;;;;;;;11.18;7.10;;;;;;;;;;5034079;28;20167;-77
2022/01/27 12:42:14;;;;;;;9.85;7.10;;;;;;;;;;5001170;28;20499;-77
2022/01/27 12:44:42;;;;;;;12.57;7.22;;;;;;;;;;5034305;28;20124;-77
2022/01/27 12:47:13;;;;;;;10.75;7.63;;;;;;;;;;5001270;28;20033;-77
2022/01/27 12:49:40;;;;;;;13.18;8.55;;;;;;;;;;5017707;28;20041;-77
2022/01/27 12:52:08;;;;;;;12.95;7.03;;;;;;;;;;5051595;28;20076;-77
2022/01/27 12:54:35;;;;;;;13.13;7.10;;;;;;;;;;5018034;28;20106;-77
2022/01/27 12:57:00;;;;;;;8.00;5.63;;;;;;;;;;5017657;28;20033;-77
2022/01/27 12:59:30;;;;;;;8.90;6.82;;;;;;;;;;5017294;28;20052;-76
2022/01/27 13:02:00;;;;;;;9.88;6.13;;;;;;;;;;5000892;28;20064;-76
2022/01/27 13:04:27;;;;;;;14.05;6.97;;;;;;;;;;5016756;28;20052;-77
2022/01/27 13:06:54;;;;;;;10.35;6.20;;;;;;;;;;5017428;28;20029;-77
2022/01/27 13:09:19;;;;;;;7.38;5.55;;;;;;;;;;5017387;28;20040;-77
2022/01/27 13:11:46;;;;;;;9.30;6.25;;;;;;;;;;5000885;28;20043;-77
2022/01/27 13:14:12;;;;;;;8.00;6.05;;;;;;;;;;5017297;28;20462;-77
2022/01/27 13:16:49;;;;;;;7.32;5.85;;;;;;;;;;5000467;28;20040;-77
2022/01/27 13:19:29;;;;;;;8.23;4.88;;;;;;;;;;5018076;28;20040;-77
2022/01/27 13:22:01;;;;;;;7.88;5.68;;;;;;;;;;5030225;28;20083;-77
2022/01/27 13:24:30;;;;;;;7.53;5.18;;;;;;;;;;5053474;28;20044;-77
2022/01/27 13:27:08;;;;;;;7.88;5.13;;;;;;;;;;5021543;28;20040;-77
2022/01/27 13:29:45;;;;;;;7.22;4.80;;;;;;;;;;5020780;28;20044;-77
2022/01/27 13:32:10;;;;;;;8.02;5.20;;;;;;;;;;5036745;28;20108;-76
2022/01/27 13:34:46;;;;;;;7.05;4.80;;;;;;;;;;5012874;28;20037;-77
2022/01/27 13:37:12;;;;;;;7.32;4.78;;;;;;;;;;5017512;28;20068;-77
2022/01/27 13:42:19;;;;;;;7.00;5.03;;;;;;;;;;5020691;28;20562;-77
2022/01/27 13:44:55;;;;;;;6.97;5.47;;;;;;;;;;5000586;28;20124;-77
2022/01/27 13:47:25;;;;;;;7.60;4.72;;;;;;;;;;5001314;28;20032;-77
2022/01/27 13:49:51;;;;;;;7.47;4.63;;;;;;;;;;5016689;28;20041;-77
2022/01/27 13:52:17;;;;;;;6.30;4.43;;;;;;;;;;5016855;28;20108;-77
2022/01/27 13:54:47;;;;;;;6.90;4.43;;;;;;;;;;5016724;28;20068;-77
2022/01/27 13:57:20;;;;;;;8.50;4.75;;;;;;;;;;5016923;28;20033;-77
2022/01/27 13:59:55;;;;;;;5.68;4.10;;;;;;;;;;5020453;28;20039;-77
2022/01/27 14:02:26;;;;;;;5.90;4.63;;;;;;;;;;5036778;28;20036;-77
2022/01/27 14:04:53;;;;;;;7.05;4.13;;;;;;;;;;5004090;28;20033;-77
2022/01/27 14:07:26;;;;;;;5.90;4.10;;;;;;;;;;5020420;28;20637;-77
2022/01/27 14:09:53;;;;;;;7.95;5.00;;;;;;;;;;5020431;28;20130;-77
2022/01/27 14:12:23;;;;;;;7.18;4.75;;;;;;;;;;5020362;28;20033;-76
2022/01/27 14:14:50;;;;;;;5.65;3.97;;;;;;;;;;5021340;28;20051;-76
2022/01/27 14:17:33;;;;;;;8.18;5.28;;;;;;;;;;5020702;28;20521;-76
2022/01/27 14:19:59;;;;;;;7.68;5.43;;;;;;;;;;5003872;28;20041;-76
2022/01/27 14:22:29;;;;;;;8.10;6.07;;;;;;;;;;5025612;28;20452;-76
2022/01/27 14:25:16;;;;;;;22.20;14.30;;;;;;;;;;5020486;28;20052;-76
2022/01/27 14:27:44;;;;;;;16.40;10.85;;;;;;;;;;5024036;28;20041;-76
2022/01/27 14:30:14;;;;;;;13.88;10.18;;;;;;;;;;5003834;28;20098;-76
2022/01/27 14:32:40;;;;;;;13.23;9.13;;;;;;;;;;5020634;28;20029;-76
2022/01/27 14:35:10;;;;;;;13.52;8.48;;;;;;;;;;5044494;28;20040;-76
2022/01/27 14:37:36;;;;;;;16.55;10.25;;;;;;;;;;5004239;28;20372;-77
2022/01/27 14:40:03;;;;;;;14.20;10.90;;;;;;;;;;5019534;28;20033;-77
2022/01/27 14:42:29;;;;;;;16.98;11.73;;;;;;;;;;5019184;28;20033;-77
2022/01/27 14:44:54;;;;;;;14.93;10.73;;;;;;;;;;5019696;28;20049;-77
2022/01/27 14:47:20;;;;;;;15.73;11.27;;;;;;;;;;5019287;28;20449;-77
2022/01/27 14:49:47;;;;;;;14.38;9.25;;;;;;;;;;5003446;28;20060;-77
2022/01/27 14:52:14;;;;;;;13.43;8.85;;;;;;;;;;5035759;28;20037;-78
2022/01/27 14:54:40;;;;;;;12.93;8.68;;;;;;;;;;5003604;28;20040;-77
2022/01/27 14:57:08;;;;;;;13.13;9.38;;;;;;;;;;5003218;28;20504;-77
2022/01/27 14:59:33;;;;;;;12.23;7.90;;;;;;;;;;5036237;28;20033;-77
2022/01/27 15:01:58;;;;;;;11.65;8.05;;;;;;;;;;5035387;28;20453;-77
2022/01/27 15:04:24;;;;;;;10.55;6.72;;;;;;;;;;5035348;28;20450;-77
2022/01/27 15:06:49;;;;;;;10.88;6.97;;;;;;;;;;5035935;28;20067;-77
2022/01/27 15:09:15;;;;;;;9.85;6.40;;;;;;;;;;5035623;28;20477;-77
2022/01/27 15:11:40;;;;;;;8.68;6.63;;;;;;;;;;5001922;28;20033;-77
2022/01/27 15:19:36;;;;;;;8.48;5.65;;;;;;;;;;5021293;28;20581;-77
2022/01/27 15:22:03;;;;;;;9.07;5.85;;;;;;;;;;5029765;28;20032;-77